Isabella — 9HSL7 — position and weather

sailwx.info

Track history (hours):
 
Tides and Currents Weather Stations Pressure Air Temp Water Temp Dewpoint Dewpoint Depression Visibility Wind Speed Wind Dir Waves Ship Positions

Isabella

Last reported at 2015-Aug-29 18:26 UTC. Time now 2015-Sep-01 22:24 UTC.
Position N 33°33' W 009°18'.

Length 244 m; draft 8 m.

Type: Tanker. MMSI: 215545000.

Date/timePositionNaut miles runAvg speedWind from/ knotsBaromVisibWave heightAir tempDewpointWater temp
2015-Aug-29 18:26N 33°33' W 009°18'  
2015-Aug-26 23:11N 37°07' W 000°57'810.5
2015-Aug-26 22:25N 37°12' W 000°49'2010.7
2015-Aug-26 20:32N 37°24' W 000°28'1010.6
2015-Aug-26 19:33N 37°30' W 000°18'1110.8
2015-Aug-26 18:31N 37°39' W 000°09'1210.8
2015-Aug-26 17:25N 37°48' E 000°01'1511.0
2015-Aug-26 16:05N 37°59' E 000°13'4610.2
2015-Aug-26 11:32N 38°35' E 000°50'1 0.6
2015-Aug-26 09:30N 38°34' E 000°50'8 0.8
2015-Aug-26 00:12N 38°28' E 000°56'4 0.5
2015-Aug-25 15:31N 38°24' E 000°59'5 0.4
2015-Aug-25 03:31N 38°21' E 000°54'0 0.4
2015-Aug-25 02:33N 38°21' E 000°54'0 0.4
2015-Aug-25 01:33N 38°21' E 000°53'0 0.5
2015-Aug-25 00:33N 38°20' E 000°53'0 0.5
2015-Aug-24 23:33N 38°20' E 000°52'1 0.5
2015-Aug-24 22:33N 38°20' E 000°52'1 0.6
2015-Aug-24 21:33N 38°21' E 000°51'11 8.1
2015-Aug-24 20:13N 38°31' E 000°53'18 9.9
2015-Aug-24 18:23N 38°50' E 000°57'33 8.5
2015-Aug-24 14:28N 39°17' E 001°21'3 3.3
2015-Aug-24 13:33N 39°16' E 001°17'2 2.3
2015-Aug-24 12:28N 39°18' E 001°15'2 2.6
2015-Aug-24 11:32N 39°20' E 001°12'35 2.1
2015-Aug-23 19:12N 39°34' E 000°31'4 0.1
2015-Aug-22 12:30N 39°36' E 000°26'4 0.2
2015-Aug-21 17:15N 39°40' E 000°27'912.0
2015-Aug-21 16:30N 39°46' E 000°19'16 7.6
2015-Aug-21 14:23N 39°56' E 000°03'  
Track history (hours):
 
Tides and Currents Weather Stations Pressure Air Temp Water Temp Dewpoint Dewpoint Depression Visibility Wind Speed Wind Dir Waves Ship Positions

Isabella

Last reported at 2015-Aug-29 18:26 UTC. Time now 2015-Sep-01 22:24 UTC.
Position N 33°33' W 009°18'.

Length 244 m; draft 8 m.

Type: Tanker. MMSI: 215545000.

Date/timePositionNaut miles runAvg speedWind from/ knotsBaromVisibWave heightAir tempDewpointWater temp
2015-Aug-29 18:26N 33°33' W 009°18'  
2015-Aug-26 23:11N 37°07' W 000°57'810.5
2015-Aug-26 22:25N 37°12' W 000°49'2010.7
2015-Aug-26 20:32N 37°24' W 000°28'1010.6
2015-Aug-26 19:33N 37°30' W 000°18'1110.8
2015-Aug-26 18:31N 37°39' W 000°09'1210.8
2015-Aug-26 17:25N 37°48' E 000°01'1511.0
2015-Aug-26 16:05N 37°59' E 000°13'4610.2
2015-Aug-26 11:32N 38°35' E 000°50'1 0.6
2015-Aug-26 09:30N 38°34' E 000°50'8 0.8
2015-Aug-26 00:12N 38°28' E 000°56'4 0.5
2015-Aug-25 15:31N 38°24' E 000°59'5 0.4
2015-Aug-25 03:31N 38°21' E 000°54'0 0.4
2015-Aug-25 02:33N 38°21' E 000°54'0 0.4
2015-Aug-25 01:33N 38°21' E 000°53'0 0.5
2015-Aug-25 00:33N 38°20' E 000°53'0 0.5
2015-Aug-24 23:33N 38°20' E 000°52'1 0.5
2015-Aug-24 22:33N 38°20' E 000°52'1 0.6
2015-Aug-24 21:33N 38°21' E 000°51'11 8.1
2015-Aug-24 20:13N 38°31' E 000°53'18 9.9
2015-Aug-24 18:23N 38°50' E 000°57'33 8.5
2015-Aug-24 14:28N 39°17' E 001°21'3 3.3
2015-Aug-24 13:33N 39°16' E 001°17'2 2.3
2015-Aug-24 12:28N 39°18' E 001°15'2 2.6
2015-Aug-24 11:32N 39°20' E 001°12'35 2.1
2015-Aug-23 19:12N 39°34' E 000°31'4 0.1
2015-Aug-22 12:30N 39°36' E 000°26'4 0.2
2015-Aug-21 17:15N 39°40' E 000°27'912.0
2015-Aug-21 16:30N 39°46' E 000°19'16 7.6
2015-Aug-21 14:23N 39°56' E 000°03'  

Dump ship's entire track history